No particular awareness of the weather is required.    There are no Weather-warnings


Meteo18 Weather Cam more information Meteo18 Weather Cam


Thunder radar more information blitzortung!


Rain radar more information rain snow radar


Visit our other weather sites:

Template documentation
and downloads

And another site



Weather Underground History page Text

Daily Summary for May 14, 2017 Units:  Both    English   Metric
« Previous Day
Next Day »
Daily Weekly Monthly Yearly Custom
  High: Low: Average:
Temperature: 68.5 °F /  20.3 °C 50.2 °F /  10.1 °C 59.5 °F /  15.3 °C
Dew Point: 56.1 °F /  13.4 °C 48 °F /  8.9 °C 52.5 °F /  11.4 °C
Humidity: 97 % 55 % 79 %
Wind Speed: 12 mph /  19.3 km/h - 2.5 mph /  4.1 km/h
Wind Gust: 19 mph /  30.6 km/h - -
Wind:- - WSW
Pressure: 30.4 in /  1027.7 hPa 30.1 in /  1018.5 hPa -
Precipitation: 0.09 in /  2.3 mm    
Historical Graphs
 
 
Tabular Data for May 14, 2017
Time Temperature Dew Point Pressure Wind Wind Speed Wind Gust Humidity Rainfall Rate (Hourly)
00:02 54.3 °F /  12.4 °C 51.1 °F /  10.6 °C 30.1 in /  1018.5 hPa Calm   2 mph /  3.2 km/h 89 % 0 in /  0.0 mm
00:12 54.3 °F /  12.4 °C 51.4 °F /  10.8 °C 30.1 in /  1018.5 hPa Calm   2 mph /  3.2 km/h 90 % 0 in /  0.0 mm
00:17 54 °F /  12.2 °C 51.1 °F /  10.6 °C 30.1 in /  1018.8 hPa Calm   2 mph /  3.2 km/h 90 % 0 in /  0.0 mm
00:22 54 °F /  12.2 °C 51.1 °F /  10.6 °C 30.1 in /  1018.8 hPa Calm   2 mph /  3.2 km/h 90 % 0 in /  0.0 mm
00:32 54.3 °F /  12.4 °C 51.8 °F /  11.0 °C 30.1 in /  1018.8 hPa Calm   1 mph /  1.6 km/h 91 % 0 in /  0.0 mm
00:42 54.7 °F /  12.6 °C 52.2 °F /  11.2 °C 30.1 in /  1018.8 hPa Calm   1 mph /  1.6 km/h 91 % 0 in /  0.0 mm
00:52 55.2 °F /  12.9 °C 52.7 °F /  11.5 °C 30.1 in /  1019.2 hPa SW 1 mph /  1.6 km/h 1 mph /  1.6 km/h 91 % 0 in /  0.0 mm
00:57 55.6 °F /  13.1 °C 52.7 °F /  11.5 °C 30.1 in /  1019.2 hPa Calm   3 mph /  4.8 km/h 90 % 0 in /  0.0 mm
01:02 54.7 °F /  12.6 °C 51.3 °F /  10.7 °C 30.1 in /  1019.2 hPa Calm   3 mph /  4.8 km/h 88 % 0 in /  0.0 mm
01:12 54 °F /  12.2 °C 51.1 °F /  10.6 °C 30.1 in /  1019.5 hPa Calm   3 mph /  4.8 km/h 90 % 0 in /  0.0 mm
01:17 54.1 °F /  12.3 °C 51.8 °F /  11.0 °C 30.1 in /  1019.5 hPa Calm   1 mph /  1.6 km/h 92 % 0 in /  0.0 mm
01:22 54.5 °F /  12.5 °C 52.2 °F /  11.2 °C 30.1 in /  1019.5 hPa Calm   1 mph /  1.6 km/h 92 % 0 in /  0.0 mm
01:32 54.9 °F /  12.7 °C 52.5 °F /  11.4 °C 30.1 in /  1019.2 hPa Calm   1 mph /  1.6 km/h 92 % 0 in /  0.0 mm
01:37 55.2 °F /  12.9 °C 52.9 °F /  11.6 °C 30.1 in /  1019.5 hPa Calm   1 mph /  1.6 km/h 92 % 0 in /  0.0 mm
01:42 55.4 °F /  13.0 °C 52.9 °F /  11.6 °C 30.1 in /  1019.5 hPa Calm     91 % 0 in /  0.0 mm
01:47 55 °F /  12.8 °C 52.2 °F /  11.2 °C 30.1 in /  1019.5 hPa Calm   1 mph /  1.6 km/h 90 % 0 in /  0.0 mm
01:52 54.3 °F /  12.4 °C 51.4 °F /  10.8 °C 30.1 in /  1019.5 hPa Calm   3 mph /  4.8 km/h 90 % 0 in /  0.0 mm
01:57 54 °F /  12.2 °C 51.4 °F /  10.8 °C 30.1 in /  1019.9 hPa South 1 mph /  1.6 km/h 3 mph /  4.8 km/h 91 % 0 in /  0.0 mm
02:02 53.8 °F /  12.1 °C 51.4 °F /  10.8 °C 30.1 in /  1019.9 hPa Calm   2 mph /  3.2 km/h 92 % 0 in /  0.0 mm
02:07 53.8 °F /  12.1 °C 51.4 °F /  10.8 °C 30.1 in /  1019.9 hPa South 1 mph /  1.6 km/h 2 mph /  3.2 km/h 92 % 0 in /  0.0 mm
02:12 53.6 °F /  12.0 °C 51.6 °F /  10.9 °C 30.1 in /  1019.9 hPa SSW 1 mph /  1.6 km/h 2 mph /  3.2 km/h 93 % 0 in /  0.0 mm
02:17 53.6 °F /  12.0 °C 51.6 °F /  10.9 °C 30.1 in /  1019.9 hPa Calm   2 mph /  3.2 km/h 93 % 0 in /  0.0 mm
02:22 53.4 °F /  11.9 °C 51.4 °F /  10.8 °C 30.1 in /  1019.9 hPa SSW 1 mph /  1.6 km/h 2 mph /  3.2 km/h 93 % 0 in /  0.0 mm
02:32 53.8 °F /  12.1 °C 52.2 °F /  11.2 °C 30.1 in /  1019.9 hPa SW 3 mph /  4.8 km/h 3 mph /  4.8 km/h 94 % 0 in /  0.0 mm
02:37 54 °F /  12.2 °C 52.3 °F /  11.3 °C 30.1 in /  1020.2 hPa SSW 4 mph /  6.4 km/h 5 mph /  8.0 km/h 94 % 0 in /  0.0 mm
02:42 54 °F /  12.2 °C 52.3 °F /  11.3 °C 30.1 in /  1020.2 hPa SSW 1 mph /  1.6 km/h 5 mph /  8.0 km/h 94 % 0.03 in /  0.8 mm
02:47 54 °F /  12.2 °C 52.3 °F /  11.3 °C 30.1 in /  1020.2 hPa SSW 2 mph /  3.2 km/h 5 mph /  8.0 km/h 94 % 0.06 in /  1.5 mm
02:52 54 °F /  12.2 °C 52.3 °F /  11.3 °C 30.1 in /  1020.2 hPa SSW 1 mph /  1.6 km/h 5 mph /  8.0 km/h 94 % 0.06 in /  1.5 mm
02:57 53.8 °F /  12.1 °C 52.2 °F /  11.2 °C 30.1 in /  1020.2 hPa Calm   3 mph /  4.8 km/h 94 % 0.06 in /  1.5 mm
03:07 53.8 °F /  12.1 °C 52.3 °F /  11.3 °C 30.1 in /  1020.2 hPa Calm   2 mph /  3.2 km/h 95 % 0.06 in /  1.5 mm
03:12 54 °F /  12.2 °C 52.5 °F /  11.4 °C 30.1 in /  1020.2 hPa SW 1 mph /  1.6 km/h 2 mph /  3.2 km/h 95 % 0.06 in /  1.5 mm
03:17 54 °F /  12.2 °C 52.5 °F /  11.4 °C 30.1 in /  1020.5 hPa Calm   2 mph /  3.2 km/h 95 % 0.06 in /  1.5 mm
03:22 53.8 °F /  12.1 °C 52.3 °F /  11.3 °C 30.1 in /  1020.5 hPa SSW 1 mph /  1.6 km/h 2 mph /  3.2 km/h 95 % 0.06 in /  1.5 mm
03:27 53.8 °F /  12.1 °C 52.3 °F /  11.3 °C 30.1 in /  1020.5 hPa Calm   2 mph /  3.2 km/h 95 % 0.06 in /  1.5 mm
03:32 54 °F /  12.2 °C 52.5 °F /  11.4 °C 30.1 in /  1020.5 hPa Calm   4 mph /  6.4 km/h 95 % 0.06 in /  1.5 mm
03:37 54 °F /  12.2 °C 52.5 °F /  11.4 °C 30.1 in /  1020.5 hPa Calm   4 mph /  6.4 km/h 95 % 0.06 in /  1.5 mm
03:42 54.1 °F /  12.3 °C 52.7 °F /  11.5 °C 30.1 in /  1020.5 hPa Calm   2 mph /  3.2 km/h 95 % 0.02 in /  0.5 mm
03:47 54.1 °F /  12.3 °C 52.7 °F /  11.5 °C 30.1 in /  1020.5 hPa Calm   1 mph /  1.6 km/h 95 % 0 in /  0.0 mm
03:52 54.1 °F /  12.3 °C 52.7 °F /  11.5 °C 30.1 in /  1020.5 hPa Calm   2 mph /  3.2 km/h 95 % 0 in /  0.0 mm
03:57 54 °F /  12.2 °C 52.5 °F /  11.4 °C 30.1 in /  1020.5 hPa Calm   2 mph /  3.2 km/h 95 % 0 in /  0.0 mm
04:02 54 °F /  12.2 °C 52.5 °F /  11.4 °C 30.1 in /  1020.5 hPa SSW 1 mph /  1.6 km/h 2 mph /  3.2 km/h 95 % 0 in /  0.0 mm
04:12 53.8 °F /  12.1 °C 52.3 °F /  11.3 °C 30.1 in /  1020.5 hPa Calm   3 mph /  4.8 km/h 95 % 0 in /  0.0 mm
04:22 53.8 °F /  12.1 °C 52.3 °F /  11.3 °C 30.1 in /  1020.5 hPa Calm   3 mph /  4.8 km/h 95 % 0.01 in /  0.3 mm
04:27 53.6 °F /  12.0 °C 52.2 °F /  11.2 °C 30.1 in /  1020.5 hPa Calm   1 mph /  1.6 km/h 95 % 0.01 in /  0.3 mm
04:32 53.4 °F /  11.9 °C 52 °F /  11.1 °C 30.1 in /  1020.5 hPa Calm   1 mph /  1.6 km/h 95 % 0.01 in /  0.3 mm
04:37 53.4 °F /  11.9 °C 52 °F /  11.1 °C 30.2 in /  1020.9 hPa Calm   1 mph /  1.6 km/h 95 % 0.01 in /  0.3 mm
04:42 53.4 °F /  11.9 °C 52 °F /  11.1 °C 30.2 in /  1020.9 hPa Calm     95 % 0.01 in /  0.3 mm
04:47 53.4 °F /  11.9 °C 52.3 °F /  11.3 °C 30.2 in /  1020.9 hPa Calm     96 % 0.01 in /  0.3 mm
04:52 53.4 °F /  11.9 °C 52.3 °F /  11.3 °C 30.2 in /  1020.9 hPa Calm     96 % 0.01 in /  0.3 mm
05:02 53.2 °F /  11.8 °C 52.2 °F /  11.2 °C 30.2 in /  1021.2 hPa Calm     96 % 0.01 in /  0.3 mm
05:12 53.2 °F /  11.8 °C 52.2 °F /  11.2 °C 30.2 in /  1021.2 hPa Calm     96 % 0.01 in /  0.3 mm
05:17 53.1 °F /  11.7 °C 52 °F /  11.1 °C 30.2 in /  1021.2 hPa Calm     96 % 0 in /  0.0 mm
05:22 53.1 °F /  11.7 °C 52 °F /  11.1 °C 30.2 in /  1021.2 hPa Calm     96 % 0 in /  0.0 mm
05:32 53.1 °F /  11.7 °C 52 °F /  11.1 °C 30.2 in /  1021.2 hPa Calm     96 % 0 in /  0.0 mm
05:37 52.9 °F /  11.6 °C 51.8 °F /  11.0 °C 30.2 in /  1021.2 hPa Calm     96 % 0 in /  0.0 mm
05:42 52.9 °F /  11.6 °C 51.8 °F /  11.0 °C 30.2 in /  1021.2 hPa Calm     96 % 0 in /  0.0 mm
05:47 52.5 °F /  11.4 °C 51.4 °F /  10.8 °C 30.2 in /  1021.2 hPa Calm     96 % 0 in /  0.0 mm
05:52 52.3 °F /  11.3 °C 51.3 °F /  10.7 °C 30.2 in /  1021.6 hPa Calm     96 % 0 in /  0.0 mm
05:57 52.2 °F /  11.2 °C 51.1 °F /  10.6 °C 30.2 in /  1021.6 hPa Calm     96 % 0 in /  0.0 mm
06:02 52 °F /  11.1 °C 50.9 °F /  10.5 °C 30.2 in /  1021.6 hPa Calm     96 % 0 in /  0.0 mm
06:12 51.4 °F /  10.8 °C 50.4 °F /  10.2 °C 30.2 in /  1021.6 hPa Calm     96 % 0 in /  0.0 mm
06:17 51.4 °F /  10.8 °C 50.4 °F /  10.2 °C 30.2 in /  1021.6 hPa Calm     96 % 0 in /  0.0 mm
06:22 51.3 °F /  10.7 °C 50.2 °F /  10.1 °C 30.2 in /  1021.6 hPa Calm     96 % 0 in /  0.0 mm
06:27 51.3 °F /  10.7 °C 50.2 °F /  10.1 °C 30.2 in /  1021.6 hPa Calm     96 % 0 in /  0.0 mm
06:32 50.7 °F /  10.4 °C 49.3 °F /  9.6 °C 30.2 in /  1021.6 hPa Calm   1 mph /  1.6 km/h 95 % 0 in /  0.0 mm
06:37 50.4 °F /  10.2 °C 49.3 °F /  9.6 °C 30.2 in /  1021.6 hPa Calm   1 mph /  1.6 km/h 96 % 0 in /  0.0 mm
06:42 50.2 °F /  10.1 °C 49.1 °F /  9.5 °C 30.2 in /  1021.6 hPa Calm     96 % 0 in /  0.0 mm
06:47 50.4 °F /  10.2 °C 49.3 °F /  9.6 °C 30.2 in /  1021.9 hPa Calm     96 % 0 in /  0.0 mm
06:57 52.2 °F /  11.2 °C 51.3 °F /  10.7 °C 30.2 in /  1021.9 hPa Calm     97 % 0 in /  0.0 mm
07:02 51.6 °F /  10.9 °C 50.2 °F /  10.1 °C 30.2 in /  1021.9 hPa Calm     95 % 0 in /  0.0 mm
07:07 51.4 °F /  10.8 °C 50 °F /  10.0 °C 30.2 in /  1021.9 hPa Calm     95 % 0 in /  0.0 mm
07:12 51.4 °F /  10.8 °C 50 °F /  10.0 °C 30.2 in /  1022.2 hPa Calm     95 % 0 in /  0.0 mm
07:17 51.3 °F /  10.7 °C 49.8 °F /  9.9 °C 30.2 in /  1022.2 hPa Calm     95 % 0 in /  0.0 mm
07:27 52 °F /  11.1 °C 50.9 °F /  10.5 °C 30.2 in /  1022.2 hPa Calm     96 % 0 in /  0.0 mm
07:32 51.6 °F /  10.9 °C 50 °F /  10.0 °C 30.2 in /  1022.2 hPa Calm     94 % 0 in /  0.0 mm
07:37 51.6 °F /  10.9 °C 50.2 °F /  10.1 °C 30.2 in /  1022.2 hPa SSW 2 mph /  3.2 km/h   95 % 0 in /  0.0 mm
07:42 51.8 °F /  11.0 °C 50.4 °F /  10.2 °C 30.2 in /  1022.2 hPa Calm   2 mph /  3.2 km/h 95 % 0 in /  0.0 mm
07:47 52.2 °F /  11.2 °C 50.7 °F /  10.4 °C 30.2 in /  1022.6 hPa SSW 2 mph /  3.2 km/h 2 mph /  3.2 km/h 95 % 0 in /  0.0 mm
07:52 52.3 °F /  11.3 °C 50.9 °F /  10.5 °C 30.2 in /  1022.6 hPa Calm   2 mph /  3.2 km/h 95 % 0 in /  0.0 mm
07:57 53.1 °F /  11.7 °C 52 °F /  11.1 °C 30.2 in /  1022.6 hPa Calm   2 mph /  3.2 km/h 96 % 0 in /  0.0 mm
08:02 53.4 °F /  11.9 °C 52.3 °F /  11.3 °C 30.2 in /  1022.6 hPa Calm   2 mph /  3.2 km/h 96 % 0 in /  0.0 mm
08:12 54.3 °F /  12.4 °C 52.9 °F /  11.6 °C 30.2 in /  1022.6 hPa SSW 2 mph /  3.2 km/h 3 mph /  4.8 km/h 95 % 0 in /  0.0 mm
08:17 54.9 °F /  12.7 °C 53.4 °F /  11.9 °C 30.2 in /  1022.6 hPa SW 1 mph /  1.6 km/h 4 mph /  6.4 km/h 95 % 0 in /  0.0 mm
08:22 55 °F /  12.8 °C 53.6 °F /  12.0 °C 30.2 in /  1022.6 hPa SW 5 mph /  8.0 km/h 5 mph /  8.0 km/h 95 % 0 in /  0.0 mm
08:32 55 °F /  12.8 °C 53.1 °F /  11.7 °C 30.2 in /  1022.9 hPa SW 4 mph /  6.4 km/h 6 mph /  9.7 km/h 93 % 0 in /  0.0 mm
08:37 55 °F /  12.8 °C 53.1 °F /  11.7 °C 30.2 in /  1022.9 hPa SW 2 mph /  3.2 km/h 7 mph /  11.3 km/h 93 % 0 in /  0.0 mm
08:42 55 °F /  12.8 °C 53.1 °F /  11.7 °C 30.2 in /  1022.9 hPa SW 3 mph /  4.8 km/h 7 mph /  11.3 km/h 93 % 0 in /  0.0 mm
08:47 55 °F /  12.8 °C 52.7 °F /  11.5 °C 30.2 in /  1023.2 hPa WSW 4 mph /  6.4 km/h 7 mph /  11.3 km/h 92 % 0 in /  0.0 mm
08:57 55.8 °F /  13.2 °C 53.4 °F /  11.9 °C 30.2 in /  1023.2 hPa SW 4 mph /  6.4 km/h 6 mph /  9.7 km/h 92 % 0 in /  0.0 mm
09:02 55.9 °F /  13.3 °C 53.4 °F /  11.9 °C 30.2 in /  1023.2 hPa SW 3 mph /  4.8 km/h 7 mph /  11.3 km/h 91 % 0 in /  0.0 mm
09:12 56.5 °F /  13.6 °C 53.2 °F /  11.8 °C 30.2 in /  1023.2 hPa SW 3 mph /  4.8 km/h 7 mph /  11.3 km/h 89 % 0 in /  0.0 mm
09:17 56.5 °F /  13.6 °C 52.7 °F /  11.5 °C 30.2 in /  1023.6 hPa SW 4 mph /  6.4 km/h 6 mph /  9.7 km/h 87 % 0 in /  0.0 mm
09:27 56.7 °F /  13.7 °C 53.1 °F /  11.7 °C 30.2 in /  1023.6 hPa WSW 2 mph /  3.2 km/h 6 mph /  9.7 km/h 88 % 0 in /  0.0 mm
09:32 56.8 °F /  13.8 °C 53.2 °F /  11.8 °C 30.2 in /  1023.9 hPa Calm   6 mph /  9.7 km/h 88 % 0 in /  0.0 mm
09:42 57.2 °F /  14.0 °C 53.1 °F /  11.7 °C 30.2 in /  1023.9 hPa WSW 2 mph /  3.2 km/h 5 mph /  8.0 km/h 86 % 0 in /  0.0 mm
09:47 57.2 °F /  14.0 °C 52.7 °F /  11.5 °C 30.2 in /  1023.9 hPa SW 2 mph /  3.2 km/h 5 mph /  8.0 km/h 85 % 0 in /  0.0 mm
09:52 57.7 °F /  14.3 °C 53.6 °F /  12.0 °C 30.2 in /  1023.9 hPa South 3 mph /  4.8 km/h 5 mph /  8.0 km/h 86 % 0 in /  0.0 mm
09:57 58.1 °F /  14.5 °C 53.6 °F /  12.0 °C 30.2 in /  1023.9 hPa SSW 3 mph /  4.8 km/h 5 mph /  8.0 km/h 85 % 0 in /  0.0 mm
10:02 58.3 °F /  14.6 °C 53.4 °F /  11.9 °C 30.2 in /  1023.9 hPa SW 2 mph /  3.2 km/h 5 mph /  8.0 km/h 84 % 0 in /  0.0 mm
10:12 58.8 °F /  14.9 °C 54 °F /  12.2 °C 30.2 in /  1023.9 hPa SW 3 mph /  4.8 km/h 6 mph /  9.7 km/h 84 % 0 in /  0.0 mm
10:17 58.8 °F /  14.9 °C 53.6 °F /  12.0 °C 30.2 in /  1023.9 hPa South 4 mph /  6.4 km/h 7 mph /  11.3 km/h 83 % 0 in /  0.0 mm
10:22 58.8 °F /  14.9 °C 53.6 °F /  12.0 °C 30.3 in /  1024.3 hPa SW 5 mph /  8.0 km/h 8 mph /  12.9 km/h 83 % 0 in /  0.0 mm
10:32 59.4 °F /  15.2 °C 53.6 °F /  12.0 °C 30.3 in /  1024.3 hPa WSW 4 mph /  6.4 km/h 8 mph /  12.9 km/h 81 % 0 in /  0.0 mm
10:37 59.4 °F /  15.2 °C 52.9 °F /  11.6 °C 30.3 in /  1024.3 hPa SW 2 mph /  3.2 km/h 9 mph /  14.5 km/h 79 % 0 in /  0.0 mm
10:42 59.7 °F /  15.4 °C 54.1 °F /  12.3 °C 30.3 in /  1024.3 hPa SW 4 mph /  6.4 km/h 10 mph /  16.1 km/h 82 % 0 in /  0.0 mm
10:47 60.3 °F /  15.7 °C 53.8 °F /  12.1 °C 30.3 in /  1024.3 hPa WSW 3 mph /  4.8 km/h 10 mph /  16.1 km/h 79 % 0 in /  0.0 mm
10:57 61 °F /  16.1 °C 53.1 °F /  11.7 °C 30.3 in /  1024.3 hPa SSW 3 mph /  4.8 km/h 7 mph /  11.3 km/h 75 % 0 in /  0.0 mm
11:07 61.2 °F /  16.2 °C 53.6 °F /  12.0 °C 30.3 in /  1024.3 hPa SSW 3 mph /  4.8 km/h 8 mph /  12.9 km/h 76 % 0 in /  0.0 mm
11:12 61.5 °F /  16.4 °C 53.6 °F /  12.0 °C 30.3 in /  1024.3 hPa WSW 3 mph /  4.8 km/h 8 mph /  12.9 km/h 75 % 0 in /  0.0 mm
11:17 62.1 °F /  16.7 °C 52.9 °F /  11.6 °C 30.3 in /  1024.3 hPa WSW 4 mph /  6.4 km/h 10 mph /  16.1 km/h 72 % 0 in /  0.0 mm
11:22 61.7 °F /  16.5 °C 52.2 °F /  11.2 °C 30.3 in /  1024.3 hPa WSW 5 mph /  8.0 km/h 10 mph /  16.1 km/h 71 % 0 in /  0.0 mm
11:27 61.7 °F /  16.5 °C 52.5 °F /  11.4 °C 30.3 in /  1024.3 hPa SW 4 mph /  6.4 km/h 9 mph /  14.5 km/h 72 % 0 in /  0.0 mm
11:32 62.2 °F /  16.8 °C 53.4 °F /  11.9 °C 30.3 in /  1024.3 hPa South 4 mph /  6.4 km/h 9 mph /  14.5 km/h 73 % 0 in /  0.0 mm
11:42 63.1 °F /  17.3 °C 54.7 °F /  12.6 °C 30.3 in /  1024.3 hPa SSW 2 mph /  3.2 km/h 8 mph /  12.9 km/h 74 % 0 in /  0.0 mm
11:47 63.1 °F /  17.3 °C 51.6 °F /  10.9 °C 30.3 in /  1024.3 hPa SW 6 mph /  9.7 km/h 8 mph /  12.9 km/h 66 % 0 in /  0.0 mm
11:52 63.1 °F /  17.3 °C 52.9 °F /  11.6 °C 30.3 in /  1024.3 hPa SSE 4 mph /  6.4 km/h 10 mph /  16.1 km/h 69 % 0 in /  0.0 mm
11:57 63.3 °F /  17.4 °C 52.5 °F /  11.4 °C 30.3 in /  1024.3 hPa South 5 mph /  8.0 km/h 10 mph /  16.1 km/h 68 % 0 in /  0.0 mm
12:02 63.3 °F /  17.4 °C 51.4 °F /  10.8 °C 30.3 in /  1024.3 hPa SW 9 mph /  14.5 km/h 10 mph /  16.1 km/h 65 % 0 in /  0.0 mm
12:12 63.9 °F /  17.7 °C 51.4 °F /  10.8 °C 30.3 in /  1024.3 hPa SW 6 mph /  9.7 km/h 12 mph /  19.3 km/h 64 % 0 in /  0.0 mm
12:17 64 °F /  17.8 °C 51.6 °F /  10.9 °C 30.3 in /  1024.3 hPa SW 6 mph /  9.7 km/h 12 mph /  19.3 km/h 64 % 0 in /  0.0 mm
12:22 64.2 °F /  17.9 °C 50.9 °F /  10.5 °C 30.3 in /  1024.3 hPa SW 7 mph /  11.3 km/h 12 mph /  19.3 km/h 62 % 0 in /  0.0 mm
12:32 64.6 °F /  18.1 °C 49.5 °F /  9.7 °C 30.3 in /  1024.3 hPa SW 4 mph /  6.4 km/h 12 mph /  19.3 km/h 58 % 0 in /  0.0 mm
12:42 64.8 °F /  18.2 °C 50.5 °F /  10.3 °C 30.3 in /  1024.6 hPa WSW 9 mph /  14.5 km/h 17 mph /  27.4 km/h 60 % 0 in /  0.0 mm
12:52 65.1 °F /  18.4 °C 51.3 °F /  10.7 °C 30.3 in /  1024.6 hPa WSW 8 mph /  12.9 km/h 15 mph /  24.1 km/h 61 % 0 in /  0.0 mm
12:57 65.1 °F /  18.4 °C 50.4 °F /  10.2 °C 30.3 in /  1024.6 hPa SSW 4 mph /  6.4 km/h 15 mph /  24.1 km/h 59 % 0 in /  0.0 mm
13:02 65.8 °F /  18.8 °C 52 °F /  11.1 °C 30.3 in /  1024.6 hPa SW 4 mph /  6.4 km/h 13 mph /  20.9 km/h 61 % 0 in /  0.0 mm
13:07 66.4 °F /  19.1 °C 52.9 °F /  11.6 °C 30.3 in /  1024.6 hPa SSW 7 mph /  11.3 km/h 13 mph /  20.9 km/h 62 % 0 in /  0.0 mm
13:12 66.7 °F /  19.3 °C 53.2 °F /  11.8 °C 30.3 in /  1024.6 hPa SW 7 mph /  11.3 km/h 14 mph /  22.5 km/h 62 % 0 in /  0.0 mm
13:17 66.9 °F /  19.4 °C 52.2 °F /  11.2 °C 30.3 in /  1024.6 hPa SSW 7 mph /  11.3 km/h 14 mph /  22.5 km/h 59 % 0 in /  0.0 mm
13:22 66.9 °F /  19.4 °C 52.5 °F /  11.4 °C 30.3 in /  1024.6 hPa SW 4 mph /  6.4 km/h 14 mph /  22.5 km/h 60 % 0 in /  0.0 mm
13:27 67.1 °F /  19.5 °C 52.3 °F /  11.3 °C 30.3 in /  1024.6 hPa SW 4 mph /  6.4 km/h 13 mph /  20.9 km/h 59 % 0 in /  0.0 mm
13:32 67.3 °F /  19.6 °C 53.4 °F /  11.9 °C 30.3 in /  1024.6 hPa SW 11 mph /  17.7 km/h 13 mph /  20.9 km/h 61 % 0 in /  0.0 mm
13:37 66.7 °F /  19.3 °C 52 °F /  11.1 °C 30.3 in /  1024.6 hPa SW 5 mph /  8.0 km/h 13 mph /  20.9 km/h 59 % 0 in /  0.0 mm
13:42 66.4 °F /  19.1 °C 52.5 °F /  11.4 °C 30.3 in /  1024.9 hPa SSW 6 mph /  9.7 km/h 13 mph /  20.9 km/h 61 % 0 in /  0.0 mm
13:52 66.4 °F /  19.1 °C 53.4 °F /  11.9 °C 30.3 in /  1024.6 hPa SW 4 mph /  6.4 km/h 12 mph /  19.3 km/h 63 % 0 in /  0.0 mm
13:57 66.6 °F /  19.2 °C 53.1 °F /  11.7 °C 30.3 in /  1024.6 hPa WSW 7 mph /  11.3 km/h 12 mph /  19.3 km/h 62 % 0 in /  0.0 mm
14:02 66.4 °F /  19.1 °C 51.1 °F /  10.6 °C 30.3 in /  1024.9 hPa SW 6 mph /  9.7 km/h 13 mph /  20.9 km/h 58 % 0 in /  0.0 mm
14:07 66.6 °F /  19.2 °C 51.8 °F /  11.0 °C 30.3 in /  1024.9 hPa WSW 9 mph /  14.5 km/h 13 mph /  20.9 km/h 59 % 0 in /  0.0 mm
14:12 66.6 °F /  19.2 °C 52.2 °F /  11.2 °C 30.3 in /  1024.9 hPa SW 8 mph /  12.9 km/h 13 mph /  20.9 km/h 60 % 0 in /  0.0 mm
14:17 66.6 °F /  19.2 °C 51.8 °F /  11.0 °C 30.3 in /  1024.9 hPa WSW 5 mph /  8.0 km/h 12 mph /  19.3 km/h 59 % 0 in /  0.0 mm
14:22 66.9 °F /  19.4 °C 52.5 °F /  11.4 °C 30.3 in /  1024.9 hPa SW 3 mph /  4.8 km/h 12 mph /  19.3 km/h 60 % 0 in /  0.0 mm
14:32 67.1 °F /  19.5 °C 52.7 °F /  11.5 °C 30.3 in /  1024.9 hPa SSW 4 mph /  6.4 km/h 11 mph /  17.7 km/h 60 % 0 in /  0.0 mm
14:37 67.8 °F /  19.9 °C 54 °F /  12.2 °C 30.3 in /  1024.9 hPa WSW 3 mph /  4.8 km/h 11 mph /  17.7 km/h 61 % 0 in /  0.0 mm
14:42 68.2 °F /  20.1 °C 52.9 °F /  11.6 °C 30.3 in /  1024.6 hPa WSW 4 mph /  6.4 km/h 11 mph /  17.7 km/h 58 % 0 in /  0.0 mm
14:47 68.4 °F /  20.2 °C 53.1 °F /  11.7 °C 30.3 in /  1024.6 hPa SSW 6 mph /  9.7 km/h 12 mph /  19.3 km/h 58 % 0 in /  0.0 mm
14:52 68.5 °F /  20.3 °C 51.8 °F /  11.0 °C 30.3 in /  1024.6 hPa SSW 12 mph /  19.3 km/h 12 mph /  19.3 km/h 55 % 0 in /  0.0 mm
14:57 68.4 °F /  20.2 °C 53.1 °F /  11.7 °C 30.3 in /  1024.6 hPa West 4 mph /  6.4 km/h 12 mph /  19.3 km/h 58 % 0 in /  0.0 mm
15:02 68 °F /  20.0 °C 52.2 °F /  11.2 °C 30.3 in /  1024.6 hPa SW 7 mph /  11.3 km/h 12 mph /  19.3 km/h 57 % 0 in /  0.0 mm
15:07 67.6 °F /  19.8 °C 52.9 °F /  11.6 °C 30.3 in /  1024.6 hPa SW 9 mph /  14.5 km/h 12 mph /  19.3 km/h 59 % 0 in /  0.0 mm
15:12 67.5 °F /  19.7 °C 53.1 °F /  11.7 °C 30.3 in /  1024.6 hPa WSW 6 mph /  9.7 km/h 13 mph /  20.9 km/h 60 % 0 in /  0.0 mm
15:17 67.3 °F /  19.6 °C 52.5 °F /  11.4 °C 30.3 in /  1024.6 hPa West 4 mph /  6.4 km/h 14 mph /  22.5 km/h 59 % 0 in /  0.0 mm
15:22 66.7 °F /  19.3 °C 52.3 °F /  11.3 °C 30.3 in /  1024.6 hPa WSW 4 mph /  6.4 km/h 14 mph /  22.5 km/h 60 % 0 in /  0.0 mm
15:27 66 °F /  18.9 °C 52.2 °F /  11.2 °C 30.3 in /  1024.9 hPa West 11 mph /  17.7 km/h 14 mph /  22.5 km/h 61 % 0 in /  0.0 mm
15:32 63.1 °F /  17.3 °C 54 °F /  12.2 °C 30.3 in /  1024.9 hPa West 3 mph /  4.8 km/h 19 mph /  30.6 km/h 72 % 0 in /  0.0 mm
15:37 62.2 °F /  16.8 °C 54.5 °F /  12.5 °C 30.3 in /  1024.9 hPa WNW 7 mph /  11.3 km/h 19 mph /  30.6 km/h 76 % 0.02 in /  0.5 mm
15:42 62.6 °F /  17.0 °C 54.9 °F /  12.7 °C 30.3 in /  1024.9 hPa West 2 mph /  3.2 km/h 19 mph /  30.6 km/h 76 % 0.02 in /  0.5 mm
15:47 63.3 °F /  17.4 °C 55.2 °F /  12.9 °C 30.3 in /  1024.6 hPa SW 3 mph /  4.8 km/h 12 mph /  19.3 km/h 75 % 0.02 in /  0.5 mm
15:52 64 °F /  17.8 °C 55.2 °F /  12.9 °C 30.3 in /  1024.6 hPa West 3 mph /  4.8 km/h 12 mph /  19.3 km/h 73 % 0.02 in /  0.5 mm
16:02 65.7 °F /  18.7 °C 54 °F /  12.2 °C 30.3 in /  1024.6 hPa West 4 mph /  6.4 km/h 8 mph /  12.9 km/h 66 % 0.02 in /  0.5 mm
16:07 66.6 °F /  19.2 °C 56.1 °F /  13.4 °C 30.3 in /  1024.6 hPa WSW 5 mph /  8.0 km/h 10 mph /  16.1 km/h 69 % 0.02 in /  0.5 mm
16:12 66.7 °F /  19.3 °C 54.7 °F /  12.6 °C 30.3 in /  1024.6 hPa WSW 2 mph /  3.2 km/h 10 mph /  16.1 km/h 65 % 0.02 in /  0.5 mm
16:17 66.7 °F /  19.3 °C 55 °F /  12.8 °C 30.3 in /  1024.6 hPa West 5 mph /  8.0 km/h 7 mph /  11.3 km/h 66 % 0.02 in /  0.5 mm
16:22 66.4 °F /  19.1 °C 54.3 °F /  12.4 °C 30.3 in /  1024.6 hPa WNW 3 mph /  4.8 km/h 7 mph /  11.3 km/h 65 % 0.02 in /  0.5 mm
16:27 66.4 °F /  19.1 °C 54.3 °F /  12.4 °C 30.3 in /  1024.3 hPa WNW 6 mph /  9.7 km/h 8 mph /  12.9 km/h 65 % 0.02 in /  0.5 mm
16:32 66.6 °F /  19.2 °C 55.6 °F /  13.1 °C 30.3 in /  1024.6 hPa WNW 5 mph /  8.0 km/h 8 mph /  12.9 km/h 68 % 0.01 in /  0.3 mm
16:37 66.6 °F /  19.2 °C 56.1 °F /  13.4 °C 30.3 in /  1024.6 hPa West 3 mph /  4.8 km/h 9 mph /  14.5 km/h 69 % 0 in /  0.0 mm
16:42 66.4 °F /  19.1 °C 55.9 °F /  13.3 °C 30.3 in /  1024.6 hPa WSW 7 mph /  11.3 km/h 9 mph /  14.5 km/h 69 % 0 in /  0.0 mm
16:47 66.4 °F /  19.1 °C 55.9 °F /  13.3 °C 30.3 in /  1024.6 hPa WNW 7 mph /  11.3 km/h 9 mph /  14.5 km/h 69 % 0 in /  0.0 mm
16:52 66.4 °F /  19.1 °C 55.6 °F /  13.1 °C 30.3 in /  1024.6 hPa West 3 mph /  4.8 km/h 10 mph /  16.1 km/h 68 % 0 in /  0.0 mm
16:57 66.2 °F /  19.0 °C 54.5 °F /  12.5 °C 30.3 in /  1024.9 hPa West 5 mph /  8.0 km/h 11 mph /  17.7 km/h 66 % 0 in /  0.0 mm
17:02 66 °F /  18.9 °C 54.7 °F /  12.6 °C 30.3 in /  1024.9 hPa West 6 mph /  9.7 km/h 12 mph /  19.3 km/h 67 % 0 in /  0.0 mm
17:12 63.9 °F /  17.7 °C 54.3 °F /  12.4 °C 30.3 in /  1024.9 hPa WNW 7 mph /  11.3 km/h 17 mph /  27.4 km/h 71 % 0 in /  0.0 mm
17:17 63.7 °F /  17.6 °C 53.2 °F /  11.8 °C 30.3 in /  1024.9 hPa West 6 mph /  9.7 km/h 17 mph /  27.4 km/h 69 % 0 in /  0.0 mm
17:22 63.9 °F /  17.7 °C 54.7 °F /  12.6 °C 30.3 in /  1024.9 hPa West 6 mph /  9.7 km/h 15 mph /  24.1 km/h 72 % 0 in /  0.0 mm
17:27 64.6 °F /  18.1 °C 55.8 °F /  13.2 °C 30.3 in /  1024.9 hPa West 2 mph /  3.2 km/h 10 mph /  16.1 km/h 73 % 0 in /  0.0 mm
17:32 64.8 °F /  18.2 °C 55.2 °F /  12.9 °C 30.3 in /  1024.9 hPa West 3 mph /  4.8 km/h 11 mph /  17.7 km/h 71 % 0 in /  0.0 mm
17:42 64.9 °F /  18.3 °C 55.4 °F /  13.0 °C 30.3 in /  1024.9 hPa WSW 6 mph /  9.7 km/h 11 mph /  17.7 km/h 71 % 0 in /  0.0 mm
17:52 65.7 °F /  18.7 °C 55.2 °F /  12.9 °C 30.3 in /  1024.9 hPa West 3 mph /  4.8 km/h 9 mph /  14.5 km/h 69 % 0 in /  0.0 mm
17:57 65.8 °F /  18.8 °C 55.8 °F /  13.2 °C 30.3 in /  1024.9 hPa West 5 mph /  8.0 km/h 9 mph /  14.5 km/h 70 % 0 in /  0.0 mm
18:02 66.4 °F /  19.1 °C 55.9 °F /  13.3 °C 30.3 in /  1024.9 hPa WSW 7 mph /  11.3 km/h 9 mph /  14.5 km/h 69 % 0 in /  0.0 mm
18:12 67.3 °F /  19.6 °C 55 °F /  12.8 °C 30.3 in /  1024.9 hPa WSW 8 mph /  12.9 km/h 12 mph /  19.3 km/h 65 % 0 in /  0.0 mm
18:17 67.3 °F /  19.6 °C 54.3 °F /  12.4 °C 30.3 in /  1024.9 hPa WSW 2 mph /  3.2 km/h 12 mph /  19.3 km/h 63 % 0 in /  0.0 mm
18:22 67.3 °F /  19.6 °C 51.4 °F /  10.8 °C 30.3 in /  1024.9 hPa West 4 mph /  6.4 km/h 12 mph /  19.3 km/h 57 % 0 in /  0.0 mm
18:27 67.3 °F /  19.6 °C 52.5 °F /  11.4 °C 30.3 in /  1024.9 hPa South 4 mph /  6.4 km/h 13 mph /  20.9 km/h 59 % 0 in /  0.0 mm
18:32 67.3 °F /  19.6 °C 52.5 °F /  11.4 °C 30.3 in /  1024.9 hPa WSW 10 mph /  16.1 km/h 13 mph /  20.9 km/h 59 % 0 in /  0.0 mm
18:37 67.1 °F /  19.5 °C 52.3 °F /  11.3 °C 30.3 in /  1024.9 hPa WSW 3 mph /  4.8 km/h 14 mph /  22.5 km/h 59 % 0 in /  0.0 mm
18:42 67.5 °F /  19.7 °C 54 °F /  12.2 °C 30.3 in /  1024.9 hPa WNW 3 mph /  4.8 km/h 14 mph /  22.5 km/h 62 % 0 in /  0.0 mm
18:52 67.3 °F /  19.6 °C 53.8 °F /  12.1 °C 30.3 in /  1024.9 hPa WSW 5 mph /  8.0 km/h 10 mph /  16.1 km/h 62 % 0 in /  0.0 mm
18:57 66.9 °F /  19.4 °C 53.4 °F /  11.9 °C 30.3 in /  1024.9 hPa West 5 mph /  8.0 km/h 11 mph /  17.7 km/h 62 % 0 in /  0.0 mm
19:02 67.1 °F /  19.5 °C 54.1 °F /  12.3 °C 30.3 in /  1024.9 hPa West 4 mph /  6.4 km/h 11 mph /  17.7 km/h 63 % 0 in /  0.0 mm
19:12 67.1 °F /  19.5 °C 54.5 °F /  12.5 °C 30.3 in /  1025.3 hPa WNW 4 mph /  6.4 km/h 8 mph /  12.9 km/h 64 % 0 in /  0.0 mm
19:17 66.9 °F /  19.4 °C 54 °F /  12.2 °C 30.3 in /  1025.3 hPa West 7 mph /  11.3 km/h 8 mph /  12.9 km/h 63 % 0 in /  0.0 mm
19:22 66.4 °F /  19.1 °C 53.8 °F /  12.1 °C 30.3 in /  1025.3 hPa West 3 mph /  4.8 km/h 9 mph /  14.5 km/h 64 % 0 in /  0.0 mm
19:27 66 °F /  18.9 °C 54 °F /  12.2 °C 30.3 in /  1025.3 hPa SW 3 mph /  4.8 km/h 9 mph /  14.5 km/h 65 % 0 in /  0.0 mm
19:32 66 °F /  18.9 °C 53.4 °F /  11.9 °C 30.3 in /  1025.3 hPa WSW 8 mph /  12.9 km/h 9 mph /  14.5 km/h 64 % 0 in /  0.0 mm
19:37 66 °F /  18.9 °C 53.4 °F /  11.9 °C 30.3 in /  1025.3 hPa West 4 mph /  6.4 km/h 8 mph /  12.9 km/h 64 % 0 in /  0.0 mm
19:42 66 °F /  18.9 °C 53.4 °F /  11.9 °C 30.3 in /  1025.3 hPa West 3 mph /  4.8 km/h 9 mph /  14.5 km/h 64 % 0 in /  0.0 mm
19:52 65.7 °F /  18.7 °C 53.2 °F /  11.8 °C 30.3 in /  1025.6 hPa WNW 4 mph /  6.4 km/h 8 mph /  12.9 km/h 64 % 0 in /  0.0 mm
19:57 65.3 °F /  18.5 °C 53.2 °F /  11.8 °C 30.3 in /  1025.6 hPa SW 5 mph /  8.0 km/h 8 mph /  12.9 km/h 65 % 0 in /  0.0 mm
20:02 65.1 °F /  18.4 °C 54 °F /  12.2 °C 30.3 in /  1025.6 hPa WSW 6 mph /  9.7 km/h 8 mph /  12.9 km/h 67 % 0 in /  0.0 mm
20:12 65.7 °F /  18.7 °C 54 °F /  12.2 °C 30.3 in /  1025.6 hPa West 4 mph /  6.4 km/h 6 mph /  9.7 km/h 66 % 0 in /  0.0 mm
20:17 65.8 °F /  18.8 °C 54.1 °F /  12.3 °C 30.3 in /  1026.0 hPa West 2 mph /  3.2 km/h 6 mph /  9.7 km/h 66 % 0 in /  0.0 mm
20:22 66 °F /  18.9 °C 54 °F /  12.2 °C 30.3 in /  1026.0 hPa WSW 1 mph /  1.6 km/h 6 mph /  9.7 km/h 65 % 0 in /  0.0 mm
20:27 65.7 °F /  18.7 °C 54.3 °F /  12.4 °C 30.3 in /  1026.0 hPa West 3 mph /  4.8 km/h 6 mph /  9.7 km/h 67 % 0 in /  0.0 mm
20:32 65.1 °F /  18.4 °C 54 °F /  12.2 °C 30.3 in /  1026.0 hPa WSW 1 mph /  1.6 km/h 5 mph /  8.0 km/h 67 % 0 in /  0.0 mm
20:37 64.8 °F /  18.2 °C 54 °F /  12.2 °C 30.3 in /  1026.0 hPa WSW 2 mph /  3.2 km/h 5 mph /  8.0 km/h 68 % 0 in /  0.0 mm
20:42 64.6 °F /  18.1 °C 54.1 °F /  12.3 °C 30.3 in /  1026.0 hPa Calm   5 mph /  8.0 km/h 69 % 0 in /  0.0 mm
20:47 64 °F /  17.8 °C 54.5 °F /  12.5 °C 30.3 in /  1026.0 hPa WSW 1 mph /  1.6 km/h 4 mph /  6.4 km/h 71 % 0 in /  0.0 mm
20:52 63.9 °F /  17.7 °C 54.7 °F /  12.6 °C 30.3 in /  1026.3 hPa WSW 1 mph /  1.6 km/h 3 mph /  4.8 km/h 72 % 0 in /  0.0 mm
20:57 63.7 °F /  17.6 °C 54.5 °F /  12.5 °C 30.3 in /  1026.3 hPa WSW 1 mph /  1.6 km/h 4 mph /  6.4 km/h 72 % 0 in /  0.0 mm
21:02 63.3 °F /  17.4 °C 54.1 °F /  12.3 °C 30.3 in /  1026.3 hPa West 1 mph /  1.6 km/h 4 mph /  6.4 km/h 72 % 0 in /  0.0 mm
21:07 63 °F /  17.2 °C 54.1 °F /  12.3 °C 30.3 in /  1026.3 hPa West 2 mph /  3.2 km/h 4 mph /  6.4 km/h 73 % 0 in /  0.0 mm
21:12 62.2 °F /  16.8 °C 54.1 °F /  12.3 °C 30.3 in /  1026.3 hPa WSW 1 mph /  1.6 km/h 2 mph /  3.2 km/h 75 % 0 in /  0.0 mm
21:17 62.1 °F /  16.7 °C 54 °F /  12.2 °C 30.3 in /  1026.3 hPa Calm   2 mph /  3.2 km/h 75 % 0 in /  0.0 mm
21:22 61.5 °F /  16.4 °C 54 °F /  12.2 °C 30.3 in /  1026.3 hPa WNW 2 mph /  3.2 km/h 2 mph /  3.2 km/h 76 % 0 in /  0.0 mm
21:27 61 °F /  16.1 °C 54.1 °F /  12.3 °C 30.3 in /  1026.6 hPa Calm   2 mph /  3.2 km/h 78 % 0 in /  0.0 mm
21:32 60.4 °F /  15.8 °C 54 °F /  12.2 °C 30.3 in /  1026.6 hPa Calm   2 mph /  3.2 km/h 79 % 0 in /  0.0 mm
21:42 59.5 °F /  15.3 °C 53.8 °F /  12.1 °C 30.3 in /  1026.6 hPa Calm   1 mph /  1.6 km/h 81 % 0 in /  0.0 mm
21:52 58.3 °F /  14.6 °C 53.4 °F /  11.9 °C 30.3 in /  1027.0 hPa West 1 mph /  1.6 km/h 1 mph /  1.6 km/h 84 % 0 in /  0.0 mm
21:57 57.6 °F /  14.2 °C 53.1 °F /  11.7 °C 30.3 in /  1027.0 hPa Calm   1 mph /  1.6 km/h 85 % 0 in /  0.0 mm
22:02 57.6 °F /  14.2 °C 52.7 °F /  11.5 °C 30.3 in /  1027.0 hPa Calm   1 mph /  1.6 km/h 84 % 0 in /  0.0 mm
22:07 57.4 °F /  14.1 °C 52.3 °F /  11.3 °C 30.3 in /  1027.3 hPa Calm   1 mph /  1.6 km/h 83 % 0 in /  0.0 mm
22:12 57.4 °F /  14.1 °C 52.3 °F /  11.3 °C 30.3 in /  1027.0 hPa Calm   1 mph /  1.6 km/h 83 % 0 in /  0.0 mm
22:17 57.4 °F /  14.1 °C 51.6 °F /  10.9 °C 30.3 in /  1027.3 hPa Calm   2 mph /  3.2 km/h 81 % 0 in /  0.0 mm
22:22 57.2 °F /  14.0 °C 51.4 °F /  10.8 °C 30.3 in /  1027.3 hPa Calm   2 mph /  3.2 km/h 81 % 0 in /  0.0 mm
22:32 56.1 °F /  13.4 °C 50.4 °F /  10.2 °C 30.3 in /  1027.3 hPa West 1 mph /  1.6 km/h 2 mph /  3.2 km/h 81 % 0 in /  0.0 mm
22:42 56.3 °F /  13.5 °C 49.5 °F /  9.7 °C 30.4 in /  1027.7 hPa Calm   3 mph /  4.8 km/h 78 % 0 in /  0.0 mm
22:47 55.6 °F /  13.1 °C 49.1 °F /  9.5 °C 30.4 in /  1027.7 hPa Calm   2 mph /  3.2 km/h 79 % 0 in /  0.0 mm
22:52 55.4 °F /  13.0 °C 48.9 °F /  9.4 °C 30.4 in /  1027.7 hPa Calm   1 mph /  1.6 km/h 79 % 0 in /  0.0 mm
22:57 55.2 °F /  12.9 °C 49.1 °F /  9.5 °C 30.4 in /  1027.7 hPa Calm   1 mph /  1.6 km/h 80 % 0 in /  0.0 mm
23:02 54.7 °F /  12.6 °C 49.3 °F /  9.6 °C 30.4 in /  1027.7 hPa Calm   1 mph /  1.6 km/h 82 % 0 in /  0.0 mm
23:07 54.3 °F /  12.4 °C 48.9 °F /  9.4 °C 30.4 in /  1027.7 hPa Calm   1 mph /  1.6 km/h 82 % 0 in /  0.0 mm
23:12 54.1 °F /  12.3 °C 49.1 °F /  9.5 °C 30.4 in /  1027.7 hPa Calm   1 mph /  1.6 km/h 83 % 0 in /  0.0 mm
23:17 54 °F /  12.2 °C 48.9 °F /  9.4 °C 30.4 in /  1027.7 hPa Calm   1 mph /  1.6 km/h 83 % 0 in /  0.0 mm
23:22 53.8 °F /  12.1 °C 48.7 °F /  9.3 °C 30.4 in /  1027.7 hPa Calm   1 mph /  1.6 km/h 83 % 0 in /  0.0 mm
23:27 53.4 °F /  11.9 °C 48.4 °F /  9.1 °C 30.4 in /  1027.7 hPa Calm   1 mph /  1.6 km/h 83 % 0 in /  0.0 mm
23:37 52.9 °F /  11.6 °C 48.2 °F /  9.0 °C 30.4 in /  1027.7 hPa Calm   1 mph /  1.6 km/h 84 % 0 in /  0.0 mm
23:42 52.7 °F /  11.5 °C 48 °F /  8.9 °C 30.4 in /  1027.7 hPa Calm     84 % 0 in /  0.0 mm
23:52 52.3 °F /  11.3 °C 48 °F /  8.9 °C 30.4 in /  1027.7 hPa Calm     85 % 0 in /  0.0 mm
Meteo18
Compliments of Weather Underground - 4 mb

Script developed by  Jim McMurry - jmcmurry@mwt.net Adapted for the template by  Wim van der Kuil - Leuven-Template.eu

You find our weather info also at:

European Weather Network

Weather Underground

Equipment we use:

Weather-station
Davis Vue

Weather-program
Meteohub

Weather-server
Raspberry PI 2 B+

Provider
1 and 1

Davis Vue

Meteohub

Raspberry PI 2 B+

1 and 1